createdAt,value
2023-09-13T00:00:44.145Z,20.63
2023-09-13T00:01:44.265Z,20.56
2023-09-13T00:02:44.148Z,20.43
2023-09-13T00:03:44.607Z,20.39
2023-09-13T00:04:44.135Z,20.36
2023-09-13T00:05:44.095Z,20.32
2023-09-13T00:06:44.066Z,20.29
2023-09-13T00:07:44.062Z,20.26
2023-09-13T00:08:44.094Z,20.24
2023-09-13T00:09:44.051Z,20.19
2023-09-13T00:10:44.069Z,20.14
2023-09-13T00:11:44.011Z,20.16
2023-09-13T00:12:44.043Z,20.10
2023-09-13T00:13:44.160Z,20.13
2023-09-13T00:14:43.960Z,20.19
2023-09-13T00:15:43.981Z,20.32
2023-09-13T00:16:43.984Z,20.50
2023-09-13T00:17:44.056Z,20.60
2023-09-13T00:18:43.941Z,20.75
2023-09-13T00:19:43.921Z,20.93
2023-09-13T00:20:43.913Z,21.03
2023-09-13T00:21:43.987Z,21.18
2023-09-13T00:22:43.896Z,21.27
2023-09-13T00:23:44.192Z,21.36
2023-09-13T00:24:43.898Z,21.46
2023-09-13T00:25:43.886Z,21.54
2023-09-13T00:26:43.884Z,21.57
2023-09-13T00:27:43.868Z,21.55
2023-09-13T00:28:43.824Z,21.51
2023-09-13T00:29:43.824Z,21.45
2023-09-13T00:30:43.894Z,21.40
2023-09-13T00:31:43.944Z,21.40
2023-09-13T00:32:43.822Z,21.42
2023-09-13T00:33:44.082Z,21.45
2023-09-13T00:34:43.747Z,21.52
2023-09-13T00:35:43.774Z,21.52
2023-09-13T00:36:43.797Z,21.58
2023-09-13T00:37:43.755Z,21.62
2023-09-13T00:38:43.711Z,21.67
2023-09-13T00:39:43.717Z,21.73
2023-09-13T00:40:43.715Z,21.80
2023-09-13T00:41:43.689Z,21.85
2023-09-13T00:42:43.684Z,21.91
2023-09-13T00:43:43.859Z,21.88
2023-09-13T00:44:43.680Z,21.89
2023-09-13T00:45:43.734Z,21.91
2023-09-13T00:46:43.676Z,21.85
2023-09-13T00:47:43.672Z,21.80
2023-09-13T00:48:43.693Z,21.77
2023-09-13T00:49:43.615Z,21.45
2023-09-13T00:50:53.224Z,20.92
2023-09-13T00:51:43.617Z,20.66
2023-09-13T00:52:43.556Z,20.51
2023-09-13T00:53:43.906Z,20.51
2023-09-13T00:54:43.608Z,20.65
2023-09-13T00:55:43.551Z,20.84
2023-09-13T00:56:43.542Z,21.06
2023-09-13T00:57:43.588Z,21.32
2023-09-13T00:58:43.532Z,21.42
2023-09-13T00:59:51.274Z,21.48
2023-09-13T01:00:43.536Z,21.57
2023-09-13T01:01:43.497Z,21.62
2023-09-13T01:02:43.553Z,21.61
2023-09-13T01:03:43.929Z,21.62
2023-09-13T01:04:43.506Z,21.55
2023-09-13T01:05:43.437Z,21.45
2023-09-13T01:06:43.488Z,21.25
2023-09-13T01:07:43.397Z,20.81
2023-09-13T01:08:43.455Z,20.65
2023-09-13T01:09:43.441Z,20.51
2023-09-13T01:10:43.369Z,20.31
2023-09-13T01:11:43.389Z,20.14
2023-09-13T01:12:43.431Z,20.00
2023-09-13T01:13:43.633Z,20.00
2023-09-13T01:14:43.345Z,20.04
2023-09-13T01:15:43.464Z,20.07
2023-09-13T01:16:43.442Z,20.07
2023-09-13T01:17:43.401Z,20.03
2023-09-13T01:18:43.343Z,19.94
2023-09-13T01:19:43.288Z,19.82
2023-09-13T01:20:43.285Z,19.84
2023-09-13T01:21:43.283Z,19.89
2023-09-13T01:22:43.274Z,19.92
2023-09-13T01:23:44.112Z,19.99
2023-09-13T01:24:43.248Z,20.02
2023-09-13T01:25:43.265Z,20.11
2023-09-13T01:26:43.237Z,20.24
2023-09-13T01:27:43.255Z,20.26
2023-09-13T01:28:43.187Z,20.24
2023-09-13T01:29:43.184Z,20.13
2023-09-13T01:30:43.242Z,20.03
2023-09-13T01:31:43.248Z,20.02
2023-09-13T01:32:43.152Z,19.92
2023-09-13T01:33:43.402Z,19.73
2023-09-13T01:34:43.124Z,19.67
2023-09-13T01:35:43.161Z,19.71
2023-09-13T01:36:43.166Z,19.82
2023-09-13T01:37:43.095Z,19.89
2023-09-13T01:38:43.104Z,19.92
2023-09-13T01:39:43.089Z,19.92
2023-09-13T01:40:43.111Z,19.79
2023-09-13T01:41:43.070Z,19.67
2023-09-13T01:42:43.084Z,19.77
2023-09-13T01:43:43.291Z,19.92
2023-09-13T01:44:49.542Z,19.99
2023-09-13T01:45:43.091Z,20.11
2023-09-13T01:46:43.064Z,20.25
2023-09-13T01:47:43.004Z,20.39
2023-09-13T01:48:43.057Z,20.48
2023-09-13T01:49:42.960Z,20.58
2023-09-13T01:50:43.002Z,20.66
2023-09-13T01:51:42.977Z,20.74
2023-09-13T01:52:42.929Z,20.77
2023-09-13T01:53:43.239Z,20.72
2023-09-13T01:54:43.006Z,20.48
2023-09-13T01:55:42.957Z,20.18
2023-09-13T01:56:42.889Z,19.91
2023-09-13T01:57:42.910Z,19.67
2023-09-13T01:58:42.872Z,19.40
2023-09-13T01:59:42.914Z,19.19
2023-09-13T02:00:42.911Z,19.09
2023-09-13T02:01:42.937Z,19.08
2023-09-13T02:02:42.863Z,19.12
2023-09-13T02:03:43.076Z,19.21
2023-09-13T02:04:42.893Z,19.30
2023-09-13T02:05:43.611Z,19.40
2023-09-13T02:06:42.879Z,19.47
2023-09-13T02:07:42.779Z,19.51
2023-09-13T02:08:42.834Z,19.66
2023-09-13T02:09:42.865Z,19.74
2023-09-13T02:10:42.757Z,19.79
2023-09-13T02:11:42.801Z,19.84
2023-09-13T02:12:42.795Z,19.79
2023-09-13T02:13:43.158Z,19.67
2023-09-13T02:14:42.720Z,19.62
2023-09-13T02:15:42.822Z,19.58
2023-09-13T02:16:42.809Z,19.63
2023-09-13T02:17:42.803Z,19.70
2023-09-13T02:18:42.760Z,19.71
2023-09-13T02:19:42.737Z,19.79
2023-09-13T02:20:42.645Z,19.84
2023-09-13T02:21:42.712Z,20.00
2023-09-13T02:22:42.697Z,20.13
2023-09-13T02:23:42.862Z,20.22
2023-09-13T02:24:42.654Z,20.19
2023-09-13T02:25:42.723Z,20.11
2023-09-13T02:26:42.616Z,19.96
2023-09-13T02:27:42.722Z,19.77
2023-09-13T02:28:42.582Z,19.59
2023-09-13T02:29:42.587Z,19.44
2023-09-13T02:30:42.598Z,19.27
2023-09-13T02:31:42.657Z,19.14
2023-09-13T02:32:42.626Z,19.04
2023-09-13T02:33:42.785Z,18.98
2023-09-13T02:34:42.521Z,18.96
2023-09-13T02:35:42.509Z,19.02
2023-09-13T02:36:42.549Z,19.07
2023-09-13T02:37:42.500Z,19.12
2023-09-13T02:38:42.463Z,19.16
2023-09-13T02:39:42.540Z,19.26
2023-09-13T02:40:42.454Z,19.30
2023-09-13T02:41:50.326Z,19.34
2023-09-13T02:42:42.441Z,19.47
2023-09-13T02:43:42.852Z,19.54
2023-09-13T02:44:42.427Z,19.56
2023-09-13T02:45:42.550Z,19.44
2023-09-13T02:46:42.440Z,19.39
2023-09-13T02:47:42.406Z,19.39
2023-09-13T02:48:42.519Z,19.40
2023-09-13T02:49:42.366Z,19.39
2023-09-13T02:50:42.418Z,19.31
2023-09-13T02:51:42.475Z,19.30
2023-09-13T02:52:42.322Z,19.26
2023-09-13T02:53:42.605Z,19.34
2023-09-13T02:54:42.326Z,19.47
2023-09-13T02:55:42.333Z,19.55
2023-09-13T02:56:42.296Z,19.56
2023-09-13T02:57:42.283Z,19.55
2023-09-13T02:58:42.278Z,19.49
2023-09-13T02:59:42.296Z,19.51
2023-09-13T03:00:42.327Z,19.59
2023-09-13T03:01:42.301Z,19.71
2023-09-13T03:02:42.298Z,19.82
2023-09-13T03:03:42.582Z,19.95
2023-09-13T03:04:42.308Z,20.00
2023-09-13T03:05:42.217Z,19.99
2023-09-13T03:06:42.193Z,19.88
2023-09-13T03:07:42.178Z,19.82
2023-09-13T03:08:42.188Z,19.77
2023-09-13T03:09:42.199Z,19.76
2023-09-13T03:10:42.182Z,19.69
2023-09-13T03:11:42.127Z,19.64
2023-09-13T03:12:42.165Z,19.55
2023-09-13T03:13:42.566Z,19.47
2023-09-13T03:14:42.129Z,19.51
2023-09-13T03:15:42.096Z,19.58
2023-09-13T03:16:42.185Z,19.66
2023-09-13T03:17:42.119Z,19.79
2023-09-13T03:18:42.164Z,19.92
2023-09-13T03:19:42.086Z,20.11
2023-09-13T03:20:42.061Z,20.29
2023-09-13T03:21:42.064Z,20.48
2023-09-13T03:22:42.037Z,20.60
2023-09-13T03:23:42.354Z,20.74
2023-09-13T03:24:42.009Z,20.82
2023-09-13T03:25:42.003Z,20.80
2023-09-13T03:26:41.970Z,20.77
2023-09-13T03:27:41.993Z,20.65
2023-09-13T03:28:41.969Z,20.52
2023-09-13T03:29:41.935Z,20.48
2023-09-13T03:30:41.976Z,20.43
2023-09-13T03:31:41.996Z,20.32
2023-09-13T03:32:41.955Z,20.22
2023-09-13T03:33:42.232Z,20.22
2023-09-13T03:34:41.887Z,20.25
2023-09-13T03:35:41.886Z,20.03
2023-09-13T03:36:41.891Z,19.95
2023-09-13T03:37:41.871Z,20.00
2023-09-13T03:38:41.841Z,20.11
2023-09-13T03:39:41.837Z,20.19
2023-09-13T03:40:41.868Z,20.19
2023-09-13T03:41:41.850Z,20.16
2023-09-13T03:42:41.832Z,20.06
2023-09-13T03:43:42.260Z,19.96
2023-09-13T03:44:41.789Z,19.82
2023-09-13T03:45:41.787Z,19.74
2023-09-13T03:46:41.905Z,19.76
2023-09-13T03:47:41.830Z,19.76
2023-09-13T03:48:41.739Z,19.79
2023-09-13T03:49:41.758Z,19.89
2023-09-13T03:50:41.745Z,19.96
2023-09-13T03:51:41.725Z,20.07
2023-09-13T03:52:41.719Z,20.10
2023-09-13T03:53:41.745Z,20.00
2023-09-13T03:54:41.705Z,19.94
2023-09-13T03:55:41.757Z,19.88
2023-09-13T03:56:41.664Z,19.82
2023-09-13T03:57:41.649Z,19.82
2023-09-13T03:58:41.663Z,19.81
2023-09-13T03:59:41.615Z,19.82
2023-09-13T04:00:41.637Z,19.76
2023-09-13T04:01:41.706Z,19.66
2023-09-13T04:02:41.646Z,19.55
2023-09-13T04:03:41.617Z,19.39
2023-09-13T04:04:41.698Z,19.40
2023-09-13T04:05:41.642Z,19.44
2023-09-13T04:06:41.740Z,19.62
2023-09-13T04:07:41.600Z,19.74
2023-09-13T04:08:41.541Z,19.74
2023-09-13T04:09:41.545Z,19.64
2023-09-13T04:10:41.534Z,19.45
2023-09-13T04:11:41.504Z,19.30
2023-09-13T04:12:41.510Z,19.19
2023-09-13T04:13:41.497Z,19.14
2023-09-13T04:14:41.505Z,19.11
2023-09-13T04:15:41.517Z,19.22
2023-09-13T04:16:41.527Z,19.33
2023-09-13T04:17:41.486Z,19.45
2023-09-13T04:18:41.478Z,19.52
2023-09-13T04:19:41.438Z,19.52
2023-09-13T04:20:41.415Z,19.52
2023-09-13T04:21:41.420Z,19.55
2023-09-13T04:22:41.383Z,19.56
2023-09-13T04:23:41.413Z,19.58
2023-09-13T04:24:41.376Z,19.63
2023-09-13T04:25:41.349Z,19.67
2023-09-13T04:26:41.372Z,19.64
2023-09-13T04:27:41.394Z,19.63
2023-09-13T04:28:41.361Z,19.64
2023-09-13T04:29:41.347Z,19.64
2023-09-13T04:30:41.305Z,19.71
2023-09-13T04:31:41.380Z,19.77
2023-09-13T04:32:41.420Z,19.84
2023-09-13T04:33:41.558Z,19.74
2023-09-13T04:34:41.264Z,19.54
2023-09-13T04:35:41.289Z,19.36
2023-09-13T04:36:41.254Z,19.26
2023-09-13T04:37:41.266Z,19.18
2023-09-13T04:38:41.173Z,19.24
2023-09-13T04:39:41.237Z,19.24
2023-09-13T04:40:41.178Z,19.30
2023-09-13T04:41:41.226Z,19.30
2023-09-13T04:42:41.218Z,19.30
2023-09-13T04:43:41.119Z,19.30
2023-09-13T04:44:41.147Z,19.27
2023-09-13T04:45:41.265Z,19.24
2023-09-13T04:46:41.242Z,19.26
2023-09-13T04:47:41.235Z,19.30
2023-09-13T04:48:41.075Z,19.40
2023-09-13T04:49:41.073Z,19.45
2023-09-13T04:50:41.050Z,19.54
2023-09-13T04:51:41.066Z,19.63
2023-09-13T04:52:41.038Z,19.67
2023-09-13T04:53:41.037Z,19.79
2023-09-13T04:54:41.026Z,19.82
2023-09-13T04:55:41.002Z,19.82
2023-09-13T04:56:41.057Z,19.73
2023-09-13T04:57:40.974Z,19.67
2023-09-13T04:58:41.034Z,19.54
2023-09-13T04:59:40.970Z,19.47
2023-09-13T05:00:41.011Z,19.45
2023-09-13T05:01:41.018Z,19.49
2023-09-13T05:02:41.100Z,19.58
2023-09-13T05:03:41.042Z,19.70
2023-09-13T05:04:40.975Z,19.77
2023-09-13T05:05:40.930Z,19.82
2023-09-13T05:06:40.905Z,19.81
2023-09-13T05:07:40.885Z,19.74
2023-09-13T05:08:40.881Z,19.77
2023-09-13T05:09:40.965Z,19.84
2023-09-13T05:10:40.907Z,19.94
2023-09-13T05:11:40.849Z,20.03
2023-09-13T05:12:40.884Z,20.10
2023-09-13T05:13:40.920Z,20.19
2023-09-13T05:14:40.881Z,20.19
2023-09-13T05:15:40.833Z,20.18
2023-09-13T05:16:40.951Z,20.16
2023-09-13T05:17:40.836Z,20.21
2023-09-13T05:18:40.759Z,20.25
2023-09-13T05:19:40.798Z,20.31
2023-09-13T05:20:40.756Z,20.26
2023-09-13T05:21:40.729Z,20.31
2023-09-13T05:22:40.766Z,20.37
2023-09-13T05:23:40.697Z,20.37
2023-09-13T05:24:40.739Z,20.40
2023-09-13T05:25:40.678Z,20.47
2023-09-13T05:26:40.676Z,20.47
2023-09-13T05:27:40.685Z,20.51
2023-09-13T05:28:40.673Z,20.55
2023-09-13T05:29:40.660Z,20.56
2023-09-13T05:30:40.634Z,20.66
2023-09-13T05:31:40.712Z,20.69
2023-09-13T05:32:40.656Z,20.75
2023-09-13T05:33:40.698Z,20.81
2023-09-13T05:34:40.620Z,20.82
2023-09-13T05:35:40.573Z,20.77
2023-09-13T05:36:40.592Z,20.69
2023-09-13T05:37:40.555Z,20.55
2023-09-13T05:38:40.605Z,20.43
2023-09-13T05:39:40.568Z,20.28
2023-09-13T05:40:40.554Z,20.18
2023-09-13T05:41:40.514Z,20.10
2023-09-13T05:42:40.562Z,20.14
2023-09-13T05:43:40.551Z,20.21
2023-09-13T05:44:40.496Z,20.24
2023-09-13T05:45:40.534Z,20.24
2023-09-13T05:46:40.622Z,20.22
2023-09-13T05:47:40.538Z,20.25
2023-09-13T05:48:40.471Z,20.29
2023-09-13T05:49:40.432Z,20.37
2023-09-13T05:50:40.424Z,20.41
2023-09-13T05:51:40.407Z,20.44
2023-09-13T05:52:40.426Z,20.48
2023-09-13T05:53:40.399Z,20.44
2023-09-13T05:54:40.398Z,20.36
2023-09-13T05:55:40.362Z,20.36
2023-09-13T05:56:40.394Z,20.37
2023-09-13T05:57:40.365Z,20.47
2023-09-13T05:58:40.347Z,20.52
2023-09-13T05:59:40.323Z,20.63
2023-09-13T06:00:40.348Z,20.70
2023-09-13T06:01:40.633Z,20.77
2023-09-13T06:02:40.305Z,20.87
2023-09-13T06:03:40.355Z,20.85
2023-09-13T06:04:40.369Z,20.92
2023-09-13T06:05:40.253Z,20.93
2023-09-13T06:06:40.272Z,20.99
2023-09-13T06:07:40.235Z,21.07
2023-09-13T06:08:40.228Z,21.18
2023-09-13T06:09:40.311Z,21.22
2023-09-13T06:10:40.272Z,21.25
2023-09-13T06:11:40.254Z,21.25
2023-09-13T06:12:40.209Z,21.25
2023-09-13T06:13:40.168Z,21.24
2023-09-13T06:14:40.194Z,21.27
2023-09-13T06:15:40.271Z,21.30
2023-09-13T06:16:40.382Z,21.33
2023-09-13T06:17:40.157Z,21.33
2023-09-13T06:18:40.165Z,21.35
2023-09-13T06:19:40.119Z,21.33
2023-09-13T06:20:40.135Z,21.24
2023-09-13T06:21:40.096Z,21.20
2023-09-13T06:22:40.121Z,21.18
2023-09-13T06:23:40.351Z,21.11
2023-09-13T06:24:40.092Z,21.07
2023-09-13T06:25:40.129Z,21.00
2023-09-13T06:26:40.053Z,20.96
2023-09-13T06:27:40.029Z,20.95
2023-09-13T06:28:40.127Z,20.95
2023-09-13T06:29:40.052Z,20.92
2023-09-13T06:30:56.901Z,20.81
2023-09-13T06:31:55.577Z,20.78
2023-09-13T06:32:42.252Z,20.72
2023-09-13T06:33:42.803Z,20.63
2023-09-13T06:34:40.167Z,20.58
2023-09-13T06:35:40.171Z,20.44
2023-09-13T06:36:40.700Z,20.50
2023-09-13T06:37:40.719Z,20.51
2023-09-13T06:38:40.896Z,20.51
2023-09-13T06:39:40.591Z,20.56
2023-09-13T06:40:40.753Z,20.63
2023-09-13T06:41:40.093Z,20.70
2023-09-13T06:42:53.496Z,20.85
2023-09-13T06:43:53.981Z,20.96
2023-09-13T06:44:46.586Z,21.07
2023-09-13T06:45:55.765Z,21.09
2023-09-13T06:46:41.564Z,21.06
2023-09-13T06:47:40.081Z,21.06
2023-09-13T06:48:40.938Z,21.11
2023-09-13T06:49:41.050Z,21.15
2023-09-13T06:51:11.330Z,21.12
2023-09-13T06:52:53.974Z,21.06
2023-09-13T06:53:41.127Z,20.93
2023-09-13T06:54:40.572Z,20.82
2023-09-13T06:55:41.486Z,20.81
2023-09-13T06:56:41.372Z,20.87
2023-09-13T06:57:41.258Z,20.87
2023-09-13T06:58:43.026Z,20.87
2023-09-13T06:59:52.052Z,20.84
2023-09-13T07:00:48.332Z,20.85
2023-09-13T07:02:06.285Z,20.93
2023-09-13T07:02:41.746Z,20.96
2023-09-13T07:03:41.021Z,20.99
2023-09-13T07:04:42.039Z,21.03
2023-09-13T07:05:39.651Z,21.06
2023-09-13T07:06:39.737Z,21.11
2023-09-13T07:07:39.657Z,21.09
2023-09-13T07:08:39.624Z,21.11
2023-09-13T07:09:39.636Z,21.00
2023-09-13T07:10:39.636Z,20.88
2023-09-13T07:11:39.608Z,20.80
2023-09-13T07:12:39.544Z,20.74
2023-09-13T07:13:39.636Z,20.77
2023-09-13T07:14:39.547Z,20.82
2023-09-13T07:15:39.524Z,20.82
2023-09-13T07:16:39.583Z,20.81
2023-09-13T07:17:39.631Z,20.82
2023-09-13T07:18:39.559Z,20.78
2023-09-13T07:19:39.528Z,20.74
2023-09-13T07:20:39.477Z,20.67
2023-09-13T07:21:40.512Z,20.63
2023-09-13T07:22:39.495Z,20.77
2023-09-13T07:23:39.529Z,20.81
2023-09-13T07:24:39.445Z,20.95
2023-09-13T07:25:39.534Z,21.03
2023-09-13T07:26:39.514Z,21.02
2023-09-13T07:27:39.447Z,20.97
2023-09-13T07:28:39.500Z,20.93
2023-09-13T07:29:39.410Z,20.95
2023-09-13T07:30:39.567Z,20.75
2023-09-13T07:31:39.476Z,20.60
2023-09-13T07:32:39.429Z,20.55
2023-09-13T07:33:39.380Z,20.47
2023-09-13T07:34:39.410Z,20.50
2023-09-13T07:35:39.348Z,20.55
2023-09-13T07:36:39.331Z,20.67
2023-09-13T07:37:39.344Z,20.78
2023-09-13T07:38:39.291Z,20.90
2023-09-13T07:39:39.327Z,20.97
2023-09-13T07:40:39.280Z,20.96
2023-09-13T07:41:39.256Z,20.93
2023-09-13T07:42:39.237Z,20.87
2023-09-13T07:43:39.260Z,20.75
2023-09-13T07:44:39.243Z,20.52
2023-09-13T07:45:39.238Z,20.55
2023-09-13T07:46:39.262Z,20.52
2023-09-13T07:47:39.222Z,20.47
2023-09-13T07:48:39.202Z,20.40
2023-09-13T07:49:39.302Z,20.32
2023-09-13T07:50:39.152Z,20.28
2023-09-13T07:51:39.187Z,20.14
2023-09-13T07:53:03.304Z,20.00
2023-09-13T07:53:39.217Z,19.86
2023-09-13T07:54:39.103Z,19.76
2023-09-13T07:55:39.148Z,19.69
2023-09-13T07:56:39.117Z,19.69
2023-09-13T07:57:39.115Z,19.66
2023-09-13T07:58:39.117Z,19.47
2023-09-13T07:59:39.065Z,19.45
2023-09-13T08:00:39.135Z,19.55
2023-09-13T08:01:39.098Z,19.52
2023-09-13T08:02:39.072Z,19.63
2023-09-13T08:03:39.152Z,19.56
2023-09-13T08:04:39.128Z,19.63
2023-09-13T08:05:39.043Z,19.55
2023-09-13T08:06:39.034Z,19.54
2023-09-13T08:07:39.027Z,19.55
2023-09-13T08:08:38.991Z,19.59
2023-09-13T08:09:38.992Z,19.66
2023-09-13T08:10:38.998Z,19.70
2023-09-13T08:11:38.935Z,19.73
2023-09-13T08:12:39.011Z,19.74
2023-09-13T08:13:38.940Z,19.71
2023-09-13T08:14:38.908Z,19.63
2023-09-13T08:15:48.957Z,19.58
2023-09-13T08:16:38.970Z,19.58
2023-09-13T08:17:38.954Z,19.54
2023-09-13T08:18:38.892Z,19.49
2023-09-13T08:19:38.872Z,19.52
2023-09-13T08:20:38.885Z,19.58
2023-09-13T08:21:38.875Z,19.59
2023-09-13T08:22:40.627Z,19.73
2023-09-13T08:23:38.832Z,19.84
2023-09-13T08:24:38.792Z,19.79
2023-09-13T08:25:38.829Z,19.76
2023-09-13T08:26:38.828Z,19.69
2023-09-13T08:27:38.776Z,19.63
2023-09-13T08:28:38.778Z,19.63
2023-09-13T08:29:38.759Z,19.63
2023-09-13T08:30:38.801Z,19.59
2023-09-13T08:31:38.788Z,19.63
2023-09-13T08:32:38.713Z,19.67
2023-09-13T08:33:38.711Z,19.71
2023-09-13T08:34:38.715Z,19.79
2023-09-13T08:35:38.699Z,19.91
2023-09-13T08:36:38.671Z,19.92
2023-09-13T08:37:38.669Z,19.92
2023-09-13T08:38:38.634Z,19.94
2023-09-13T08:39:38.649Z,19.99
2023-09-13T08:40:38.670Z,20.03
2023-09-13T08:41:38.623Z,20.04
2023-09-13T08:42:38.599Z,20.07
2023-09-13T08:43:38.643Z,20.29
2023-09-13T08:44:38.623Z,20.58
2023-09-13T08:45:38.588Z,20.69
2023-09-13T08:46:38.813Z,20.82
2023-09-13T08:47:50.692Z,20.93
2023-09-13T08:48:38.609Z,21.07
2023-09-13T08:49:38.722Z,21.17
2023-09-13T08:50:38.529Z,21.24
2023-09-13T08:51:38.541Z,21.29
2023-09-13T08:52:38.548Z,21.29
2023-09-13T08:53:38.588Z,21.35
2023-09-13T08:54:55.501Z,21.39
2023-09-13T08:55:38.616Z,21.43
2023-09-13T08:56:38.471Z,21.37
2023-09-13T08:57:38.461Z,21.40
2023-09-13T08:58:38.491Z,21.36
2023-09-13T08:59:38.576Z,21.36
2023-09-13T09:00:38.541Z,21.32
2023-09-13T09:01:38.496Z,21.25
2023-09-13T09:02:38.524Z,21.24
2023-09-13T09:03:39.122Z,21.33
2023-09-13T09:04:38.413Z,21.33
2023-09-13T09:05:38.408Z,21.22
2023-09-13T09:06:38.350Z,21.11
2023-09-13T09:07:38.463Z,20.97
2023-09-13T09:08:38.363Z,20.87
2023-09-13T09:09:38.343Z,20.82
2023-09-13T09:10:38.352Z,20.74
2023-09-13T09:11:38.320Z,20.74
2023-09-13T09:12:38.309Z,20.81
2023-09-13T09:13:38.287Z,20.84
2023-09-13T09:14:38.298Z,20.87
2023-09-13T09:15:38.312Z,20.93
2023-09-13T09:16:38.297Z,20.95
2023-09-13T09:17:38.315Z,20.97
2023-09-13T09:18:38.237Z,21.03
2023-09-13T09:19:38.269Z,21.07
2023-09-13T09:20:38.248Z,21.05
2023-09-13T09:21:38.346Z,21.11
2023-09-13T09:22:38.270Z,21.14
2023-09-13T09:23:38.187Z,21.07
2023-09-13T09:24:38.220Z,20.77
2023-09-13T09:25:38.167Z,20.40
2023-09-13T09:26:38.209Z,20.13
2023-09-13T09:27:38.122Z,20.02
2023-09-13T09:28:38.174Z,20.18
2023-09-13T09:29:38.182Z,20.41
2023-09-13T09:30:38.099Z,20.58
2023-09-13T09:31:38.252Z,20.70
2023-09-13T09:32:38.270Z,20.72
2023-09-13T09:33:38.056Z,19.88
2023-09-13T09:34:38.106Z,19.70
2023-09-13T09:35:38.141Z,19.69
2023-09-13T09:36:38.075Z,19.84
2023-09-13T09:37:38.103Z,20.11
2023-09-13T09:38:38.027Z,20.28
2023-09-13T09:39:38.060Z,20.25
2023-09-13T09:40:38.064Z,20.39
2023-09-13T09:41:38.012Z,20.51
2023-09-13T09:42:37.991Z,20.63
2023-09-13T09:43:37.991Z,20.70
2023-09-13T09:44:37.969Z,20.90
2023-09-13T09:45:37.969Z,20.90
2023-09-13T09:46:37.994Z,21.00
2023-09-13T09:47:37.929Z,21.14
2023-09-13T09:48:37.921Z,21.18
2023-09-13T09:49:37.937Z,21.17
2023-09-13T09:50:37.910Z,20.92
2023-09-13T09:51:37.920Z,20.81
2023-09-13T09:52:37.905Z,20.75
2023-09-13T09:53:37.859Z,20.78
2023-09-13T09:54:37.959Z,20.63
2023-09-13T09:55:37.852Z,20.70
2023-09-13T09:56:37.864Z,20.84
2023-09-13T09:57:37.814Z,20.88
2023-09-13T09:58:37.840Z,20.85
2023-09-13T09:59:37.888Z,20.74
2023-09-13T10:00:37.861Z,20.75
2023-09-13T10:01:37.851Z,20.67
2023-09-13T10:02:37.824Z,20.47
2023-09-13T10:03:38.076Z,20.56
2023-09-13T10:04:37.813Z,20.63
2023-09-13T10:05:37.744Z,20.70
2023-09-13T10:06:37.718Z,20.62
2023-09-13T10:07:37.732Z,20.48
2023-09-13T10:08:37.719Z,20.24
2023-09-13T10:09:37.695Z,20.22
2023-09-13T10:10:37.703Z,20.41
2023-09-13T10:11:37.672Z,20.52
2023-09-13T10:12:37.638Z,20.74
2023-09-13T10:13:37.709Z,20.77
2023-09-13T10:14:37.622Z,20.78
2023-09-13T10:15:37.655Z,20.69
2023-09-13T10:16:37.648Z,20.75
2023-09-13T10:17:37.653Z,20.67
2023-09-13T10:18:37.644Z,20.70
2023-09-13T10:19:37.623Z,20.81
2023-09-13T10:20:37.552Z,20.74
2023-09-13T10:21:37.575Z,20.60
2023-09-13T10:22:37.650Z,20.52
2023-09-13T10:23:37.530Z,20.58
2023-09-13T10:24:37.537Z,20.47
2023-09-13T10:25:37.546Z,20.40
2023-09-13T10:26:37.532Z,20.26
2023-09-13T10:27:37.545Z,20.14
2023-09-13T10:28:37.504Z,19.86
2023-09-13T10:29:37.482Z,19.86
2023-09-13T10:30:37.576Z,19.74
2023-09-13T10:31:37.546Z,19.94
2023-09-13T10:32:37.527Z,20.02
2023-09-13T10:33:37.428Z,20.16
2023-09-13T10:34:37.433Z,20.19
2023-09-13T10:35:37.433Z,20.28
2023-09-13T10:36:37.429Z,20.37
2023-09-13T10:37:37.408Z,20.29
2023-09-13T10:38:37.372Z,20.34
2023-09-13T10:39:37.392Z,20.39
2023-09-13T10:40:37.425Z,20.47
2023-09-13T10:41:37.432Z,20.59
2023-09-13T10:42:37.335Z,20.70
2023-09-13T10:43:37.383Z,20.85
2023-09-13T10:44:37.311Z,20.74
2023-09-13T10:45:37.304Z,20.74
2023-09-13T10:46:37.394Z,20.77
2023-09-13T10:47:37.440Z,20.85
2023-09-13T10:48:37.403Z,20.81
2023-09-13T10:49:37.268Z,20.84
2023-09-13T10:50:37.289Z,20.88
2023-09-13T10:51:37.288Z,20.81
2023-09-13T10:52:37.233Z,20.78
2023-09-13T10:53:37.219Z,20.90
2023-09-13T10:54:37.266Z,20.97
2023-09-13T10:55:37.214Z,20.69
2023-09-13T10:56:37.180Z,20.72
2023-09-13T10:57:37.208Z,20.85
2023-09-13T10:58:37.175Z,20.81
2023-09-13T10:59:37.160Z,20.77
2023-09-13T11:00:37.174Z,20.93
2023-09-13T11:01:37.203Z,21.05
2023-09-13T11:02:37.356Z,20.78
2023-09-13T11:03:37.209Z,20.51
2023-09-13T11:04:37.121Z,20.21
2023-09-13T11:05:37.105Z,20.03
2023-09-13T11:06:37.088Z,20.02
2023-09-13T11:07:37.078Z,19.91
2023-09-13T11:08:37.066Z,19.99
2023-09-13T11:09:37.080Z,20.25
2023-09-13T11:10:37.116Z,20.34
2023-09-13T11:11:37.047Z,20.16
2023-09-13T11:12:37.010Z,20.25
2023-09-13T11:13:37.023Z,20.48
2023-09-13T11:14:37.065Z,20.66
2023-09-13T11:15:37.016Z,20.85
2023-09-13T11:16:37.081Z,20.99
2023-09-13T11:17:37.089Z,21.09
2023-09-13T11:18:36.945Z,20.96
2023-09-13T11:19:36.971Z,20.51
2023-09-13T11:20:36.954Z,20.36
2023-09-13T11:21:36.915Z,20.34
2023-09-13T11:22:36.940Z,20.47
2023-09-13T11:23:36.953Z,20.67
2023-09-13T11:24:48.750Z,20.78
2023-09-13T11:25:52.335Z,20.72
2023-09-13T11:26:38.440Z,20.82
2023-09-13T11:27:36.859Z,20.93
2023-09-13T11:28:36.976Z,21.05
2023-09-13T11:29:36.857Z,20.88
2023-09-13T11:30:36.833Z,20.88
2023-09-13T11:31:36.852Z,20.97
2023-09-13T11:32:36.825Z,20.80
2023-09-13T11:33:36.868Z,20.59
2023-09-13T11:34:36.809Z,20.31
2023-09-13T11:35:36.772Z,20.16
2023-09-13T11:36:36.765Z,20.00
2023-09-13T11:37:36.787Z,19.84
2023-09-13T11:38:36.778Z,19.94
2023-09-13T11:39:36.744Z,20.24
2023-09-13T11:40:36.727Z,20.48
2023-09-13T11:41:51.413Z,20.69
2023-09-13T11:42:36.760Z,20.84
2023-09-13T11:43:36.750Z,20.95
2023-09-13T11:44:36.719Z,20.96
2023-09-13T11:45:36.753Z,20.81
2023-09-13T11:46:36.801Z,20.74
2023-09-13T11:47:36.933Z,20.81
2023-09-13T11:48:53.381Z,20.88
2023-09-13T11:49:38.353Z,21.05
2023-09-13T11:50:46.482Z,21.09
2023-09-13T11:51:50.516Z,20.96
2023-09-13T11:53:37.677Z,20.66
2023-09-13T11:54:36.660Z,20.62
2023-09-13T11:55:38.368Z,20.62
2023-09-13T11:56:45.575Z,20.63
2023-09-13T11:57:54.706Z,20.60
2023-09-13T11:58:44.926Z,20.60
2023-09-13T11:59:36.722Z,20.59
2023-09-13T12:00:37.061Z,20.56
2023-09-13T12:01:38.322Z,20.58
2023-09-13T12:02:37.767Z,20.72
2023-09-13T12:04:23.208Z,20.81
2023-09-13T12:04:54.502Z,20.69
2023-09-13T12:06:37.172Z,20.56
2023-09-13T12:07:38.937Z,20.60
2023-09-13T12:08:37.271Z,20.70
2023-09-13T12:09:39.140Z,20.75
2023-09-13T12:10:37.623Z,20.69
2023-09-13T12:11:39.645Z,20.63
2023-09-13T12:12:46.289Z,20.55
2023-09-13T12:16:36.433Z,20.70
2023-09-13T12:17:36.448Z,20.62
2023-09-13T12:18:36.381Z,20.67
2023-09-13T12:19:36.302Z,20.74
2023-09-13T12:20:36.341Z,20.81
2023-09-13T12:21:36.339Z,20.90
2023-09-13T12:22:36.291Z,21.00
2023-09-13T12:23:36.261Z,21.09
2023-09-13T12:24:36.352Z,21.09
2023-09-13T12:25:36.279Z,21.03
2023-09-13T12:26:36.270Z,21.07
2023-09-13T12:27:36.316Z,21.00
2023-09-13T12:28:36.291Z,20.95
2023-09-13T12:29:36.242Z,20.92
2023-09-13T12:30:36.334Z,20.80
2023-09-13T12:31:36.239Z,20.84
2023-09-13T12:32:36.190Z,20.92
2023-09-13T12:33:36.213Z,20.97
2023-09-13T12:34:36.166Z,20.97
2023-09-13T12:35:36.162Z,21.02
2023-09-13T12:36:36.202Z,21.02
2023-09-13T12:37:36.126Z,20.99
2023-09-13T12:38:36.130Z,21.00
2023-09-13T12:39:36.228Z,21.07
2023-09-13T12:40:36.100Z,20.93
2023-09-13T12:41:36.091Z,20.69
2023-09-13T12:42:36.119Z,20.62
2023-09-13T12:43:36.094Z,20.60
2023-09-13T12:44:36.075Z,20.63
2023-09-13T12:45:36.063Z,20.70
2023-09-13T12:46:36.076Z,20.82
2023-09-13T12:47:36.062Z,20.93
2023-09-13T12:48:36.136Z,20.87
2023-09-13T12:49:35.987Z,20.59
2023-09-13T12:50:37.580Z,20.52
2023-09-13T12:51:36.047Z,20.55
2023-09-13T12:52:36.006Z,20.52
2023-09-13T12:53:35.980Z,20.60
2023-09-13T12:54:36.017Z,20.66
2023-09-13T12:55:35.927Z,20.67
2023-09-13T12:56:35.921Z,20.52
2023-09-13T12:57:35.981Z,20.41
2023-09-13T12:58:35.922Z,20.48